Time;durP1;ratioP1;P1;durP2;ratioP2;P2;SDS_P1;SDS_P2;PMS_P1;PMS_P2;Temp;Humidity;BMP_temperature;BMP_pressure;BME280_temperature;BME280_humidity;BME280_pressure;Samples;Min_cycle;Max_cycle;Signal;HPM_P1;HPM_P2
2023/12/17 00:01:10;;;;;;;13.95;8.40;;;10.00;99.90;;;;;;6251385;22;20026;-82
2023/12/17 00:03:37;;;;;;;13.10;6.90;;;10.00;99.90;;;;;;6251441;22;20023;-82
2023/12/17 00:06:05;;;;;;;13.35;6.90;;;10.00;99.90;;;;;;6225600;22;20054;-82
2023/12/17 00:08:33;;;;;;;13.55;6.45;;;10.10;99.90;;;;;;6226391;22;20023;-82
2023/12/17 00:11:04;;;;;;;11.82;7.05;;;10.00;99.90;;;;;;6225925;22;20012;-82
2023/12/17 00:13:31;;;;;;;11.88;6.32;;;10.10;99.90;;;;;;6250863;22;20015;-82
2023/12/17 00:16:00;;;;;;;12.55;6.20;;;10.10;99.90;;;;;;6225969;22;20015;-82
2023/12/17 00:18:27;;;;;;;12.23;6.32;;;10.10;99.90;;;;;;6200306;22;20517;-82
2023/12/17 00:20:54;;;;;;;8.65;4.57;;;10.10;99.90;;;;;;6250572;22;20077;-82
2023/12/17 00:23:24;;;;;;;10.70;5.47;;;10.10;99.90;;;;;;6226041;22;20399;-82
2023/12/17 00:25:51;;;;;;;9.07;4.40;;;10.10;99.90;;;;;;6275300;22;20024;-82
2023/12/17 00:28:18;;;;;;;9.27;4.47;;;10.10;99.90;;;;;;6200055;22;20053;-82
2023/12/17 00:30:46;;;;;;;13.88;5.05;;;10.10;99.90;;;;;;6224985;22;20038;-83
2023/12/17 00:33:13;;;;;;;9.93;4.65;;;10.10;99.90;;;;;;6276986;22;20061;-83
2023/12/17 00:35:40;;;;;;;8.45;4.35;;;10.10;99.90;;;;;;6225021;22;20024;-83
2023/12/17 00:38:07;;;;;;;9.45;4.53;;;10.10;99.90;;;;;;6224920;22;20016;-83
2023/12/17 00:40:34;;;;;;;8.73;4.43;;;10.10;99.90;;;;;;6225319;22;20019;-83
2023/12/17 00:43:01;;;;;;;9.80;5.03;;;10.10;99.90;;;;;;6249962;22;20028;-83
2023/12/17 00:45:28;;;;;;;9.63;4.72;;;10.20;99.90;;;;;;6275285;22;20069;-83
2023/12/17 00:47:55;;;;;;;10.25;4.55;;;10.20;99.90;;;;;;6250150;22;20031;-83
2023/12/17 00:50:22;;;;;;;8.55;4.95;;;10.20;99.90;;;;;;6225180;22;20047;-83
2023/12/17 00:52:49;;;;;;;8.95;4.65;;;10.20;99.90;;;;;;6225171;22;20453;-83
2023/12/17 00:55:16;;;;;;;9.63;4.43;;;10.20;99.90;;;;;;6224858;22;20103;-83
2023/12/17 00:57:49;;;;;;;8.05;3.70;;;10.20;99.90;;;;;;6225301;22;20030;-83
2023/12/17 01:00:17;;;;;;;7.50;3.83;;;10.20;99.90;;;;;;6249845;22;20071;-83
2023/12/17 01:02:45;;;;;;;9.50;4.30;;;10.20;99.90;;;;;;6224806;22;20043;-83
2023/12/17 01:05:13;;;;;;;8.23;3.70;;;10.20;99.90;;;;;;6224901;22;20110;-83
2023/12/17 01:07:40;;;;;;;7.35;4.43;;;10.20;99.90;;;;;;6224373;22;20020;-83
2023/12/17 01:10:08;;;;;;;7.07;4.07;;;10.20;99.90;;;;;;6225134;22;20037;-83
2023/12/17 01:12:35;;;;;;;8.05;3.88;;;10.20;99.90;;;;;;6225002;22;20329;-83
2023/12/17 01:15:02;;;;;;;7.93;3.78;;;10.20;99.90;;;;;;6224475;22;20046;-83
2023/12/17 01:17:29;;;;;;;6.85;3.47;;;10.20;99.90;;;;;;6225026;22;20048;-83
2023/12/17 01:19:56;;;;;;;7.63;3.40;;;10.20;99.90;;;;;;6238801;22;20028;-82
2023/12/17 01:22:24;;;;;;;7.10;3.47;;;10.20;99.90;;;;;;6249742;22;20035;-82
2023/12/17 01:24:54;;;;;;;6.13;3.13;;;10.20;99.90;;;;;;6249780;22;20024;-83
2023/12/17 01:27:21;;;;;;;7.72;3.50;;;10.20;99.90;;;;;;6250554;22;20031;-83
2023/12/17 01:29:49;;;;;;;8.52;3.45;;;10.20;99.90;;;;;;6275182;22;20020;-83
2023/12/17 01:32:16;;;;;;;8.70;4.53;;;10.20;99.90;;;;;;6249692;22;20043;-83
2023/12/17 01:34:43;;;;;;;8.18;4.20;;;10.20;99.90;;;;;;6300618;22;20349;-82
2023/12/17 01:37:10;;;;;;;9.73;4.95;;;10.20;99.90;;;;;;6275009;22;20085;-82
2023/12/17 01:39:37;;;;;;;10.25;4.95;;;10.20;99.90;;;;;;6249641;22;20069;-82
2023/12/17 01:42:04;;;;;;;7.75;4.28;;;10.20;99.90;;;;;;6275529;22;20027;-82
2023/12/17 01:44:32;;;;;;;8.65;4.32;;;10.20;99.90;;;;;;6250071;22;20353;-82
2023/12/17 01:47:00;;;;;;;8.30;4.07;;;10.20;99.90;;;;;;6274820;22;20027;-81
2023/12/17 01:49:27;;;;;;;10.25;5.53;;;10.20;99.90;;;;;;6275473;22;20073;-82
2023/12/17 01:51:54;;;;;;;9.60;3.85;;;10.20;99.90;;;;;;6275584;22;20434;-82
2023/12/17 01:54:21;;;;;;;7.00;3.50;;;10.20;99.90;;;;;;6275323;22;20401;-82
2023/12/17 01:56:48;;;;;;;6.20;3.40;;;10.20;99.90;;;;;;6249932;22;20019;-81
2023/12/17 01:59:16;;;;;;;8.40;4.25;;;10.20;99.90;;;;;;6249638;22;20110;-82
2023/12/17 02:01:46;;;;;;;8.98;5.13;;;10.30;99.90;;;;;;6249484;22;20405;-82
2023/12/17 02:04:14;;;;;;;8.63;4.00;;;10.20;99.90;;;;;;6300851;22;20098;-82
2023/12/17 02:06:41;;;;;;;6.90;3.63;;;10.20;99.90;;;;;;6274996;22;20090;-82
2023/12/17 02:09:08;;;;;;;8.02;3.53;;;10.20;99.90;;;;;;6249306;22;20102;-82
2023/12/17 02:11:35;;;;;;;7.78;3.58;;;10.20;99.90;;;;;;6274515;22;20016;-82
2023/12/17 02:14:02;;;;;;;8.40;3.53;;;10.30;99.90;;;;;;6275012;22;20026;-82
2023/12/17 02:16:29;;;;;;;7.05;3.35;;;10.20;99.90;;;;;;6274984;22;20338;-83
2023/12/17 02:19:01;;;;;;;10.32;4.75;;;10.20;99.90;;;;;;6274894;22;20039;-82
2023/12/17 02:21:28;;;;;;;6.25;3.25;;;10.30;99.90;;;;;;6274778;22;20023;-83
2023/12/17 02:23:55;;;;;;;6.50;3.25;;;10.20;99.90;;;;;;6249569;22;20077;-82
2023/12/17 02:26:22;;;;;;;7.05;3.83;;;10.20;99.90;;;;;;6249635;22;20426;-82
2023/12/17 02:28:51;;;;;;;7.80;3.35;;;10.20;99.90;;;;;;6250564;22;20019;-83
2023/12/17 02:31:18;;;;;;;6.43;3.70;;;10.20;99.90;;;;;;6249499;22;20343;-84
2023/12/17 02:33:46;;;;;;;10.65;4.95;;;10.30;99.90;;;;;;6249677;22;20043;-83
2023/12/17 02:36:13;;;;;;;5.90;3.38;;;10.20;99.90;;;;;;6274903;22;20354;-84
2023/12/17 02:38:40;;;;;;;7.93;3.80;;;10.30;99.90;;;;;;6275128;22;20051;-84
2023/12/17 02:41:07;;;;;;;8.88;3.70;;;10.30;99.90;;;;;;6249732;22;20364;-84
2023/12/17 02:43:34;;;;;;;7.43;3.25;;;10.30;99.90;;;;;;6249368;22;20024;-84
2023/12/17 02:46:02;;;;;;;6.75;3.28;;;10.20;99.90;;;;;;6274780;22;20015;-83
2023/12/17 02:48:29;;;;;;;7.55;3.72;;;10.30;99.90;;;;;;6249359;22;20114;-83
2023/12/17 02:50:56;;;;;;;7.75;3.92;;;10.20;99.90;;;;;;6274848;22;20020;-83
2023/12/17 02:53:23;;;;;;;8.45;4.22;;;10.30;99.90;;;;;;6249979;22;20024;-83
2023/12/17 02:55:50;;;;;;;8.05;4.25;;;10.30;99.90;;;;;;6251603;22;20020;-83
2023/12/17 02:58:17;;;;;;;11.32;5.32;;;10.30;99.90;;;;;;6251224;22;20050;-83
2023/12/17 03:00:44;;;;;;;13.43;5.18;;;10.30;99.90;;;;;;6251207;22;20077;-83
2023/12/17 03:03:11;;;;;;;8.73;5.55;;;10.30;99.90;;;;;;6251272;22;20365;-83
2023/12/17 03:05:38;;;;;;;7.32;4.05;;;10.30;99.90;;;;;;6251202;22;20102;-83
2023/12/17 03:08:05;;;;;;;10.32;4.78;;;10.30;99.90;;;;;;6251057;22;20050;-84
2023/12/17 03:10:32;;;;;;;10.75;4.88;;;10.30;99.90;;;;;;6251570;22;20034;-84
2023/12/17 03:12:59;;;;;;;10.35;5.57;;;10.30;99.90;;;;;;6276820;22;20015;-84
2023/12/17 03:15:27;;;;;;;11.23;5.28;;;10.30;99.90;;;;;;6276571;22;20020;-83
2023/12/17 03:17:54;;;;;;;8.25;4.47;;;10.30;99.90;;;;;;6250952;22;20345;-83
2023/12/17 03:20:21;;;;;;;11.40;5.07;;;10.30;99.90;;;;;;6251040;22;20019;-83
2023/12/17 03:22:48;;;;;;;11.40;5.70;;;10.30;99.90;;;;;;6251783;22;20031;-83
2023/12/17 03:25:15;;;;;;;11.05;5.75;;;10.30;99.90;;;;;;6277266;22;20406;-83
2023/12/17 03:27:46;;;;;;;10.55;5.43;;;10.30;99.90;;;;;;6252042;22;20023;-83
2023/12/17 03:30:19;;;;;;;15.23;7.28;;;10.30;99.90;;;;;;6252450;22;20353;-83
2023/12/17 03:32:49;;;;;;;13.15;5.82;;;10.30;99.90;;;;;;6278370;22;20043;-83
2023/12/17 03:35:16;;;;;;;12.15;5.47;;;10.30;99.90;;;;;;6277548;22;20015;-83
2023/12/17 03:37:43;;;;;;;11.43;5.82;;;10.30;99.90;;;;;;6276530;22;20061;-83
2023/12/17 03:40:13;;;;;;;10.65;5.28;;;10.30;99.90;;;;;;6251382;22;20016;-83
2023/12/17 03:42:40;;;;;;;12.20;5.90;;;10.30;99.90;;;;;;6276197;22;20090;-83
2023/12/17 03:45:07;;;;;;;12.90;5.30;;;10.30;99.90;;;;;;6250715;22;20027;-83
2023/12/17 03:47:37;;;;;;;10.80;5.45;;;10.30;99.90;;;;;;6251078;22;20024;-83
2023/12/17 03:50:05;;;;;;;9.65;5.03;;;10.30;99.90;;;;;;6275988;22;20030;-83
2023/12/17 03:52:32;;;;;;;10.48;5.70;;;10.30;99.90;;;;;;6250496;22;20024;-83
2023/12/17 03:54:59;;;;;;;10.32;5.10;;;10.30;99.90;;;;;;6250953;22;20026;-83
2023/12/17 03:57:26;;;;;;;9.93;4.75;;;10.20;99.90;;;;;;6251261;22;20065;-83
2023/12/17 03:59:53;;;;;;;9.43;4.88;;;10.20;99.90;;;;;;6250748;22;20514;-83
2023/12/17 04:02:20;;;;;;;10.82;4.55;;;10.20;99.90;;;;;;6251364;22;20501;-83
2023/12/17 04:04:47;;;;;;;8.30;4.50;;;10.30;99.90;;;;;;6250408;22;20024;-83
2023/12/17 04:07:14;;;;;;;9.18;4.57;;;10.20;99.90;;;;;;6276336;22;20031;-83
2023/12/17 04:09:41;;;;;;;9.32;5.10;;;10.20;99.90;;;;;;6276141;22;20019;-83
2023/12/17 04:12:08;;;;;;;9.20;4.85;;;10.20;99.90;;;;;;6250379;22;20377;-83
2023/12/17 04:14:35;;;;;;;9.95;4.97;;;10.20;99.90;;;;;;6250601;22;20102;-83
2023/12/17 04:17:03;;;;;;;11.32;4.90;;;10.20;99.90;;;;;;6276548;22;20709;-82
2023/12/17 04:19:31;;;;;;;12.65;5.30;;;10.20;99.90;;;;;;6250758;22;20073;-83
2023/12/17 04:21:58;;;;;;;11.27;5.07;;;10.20;99.90;;;;;;6301147;22;20421;-84
2023/12/17 04:24:25;;;;;;;8.82;3.80;;;10.20;99.90;;;;;;6250811;22;20023;-83
2023/12/17 04:26:52;;;;;;;7.03;3.00;;;10.20;99.90;;;;;;6250262;22;20049;-84
2023/12/17 04:29:19;;;;;;;6.50;2.95;;;10.20;99.90;;;;;;6250260;22;20024;-83
2023/12/17 04:31:49;;;;;;;6.95;2.90;;;10.20;99.90;;;;;;6275690;22;20030;-84
2023/12/17 04:34:16;;;;;;;8.30;3.08;;;10.20;99.90;;;;;;6275881;22;20019;-83
2023/12/17 04:36:43;;;;;;;8.80;4.45;;;10.10;99.90;;;;;;6276476;22;20216;-83
2023/12/17 04:39:10;;;;;;;9.80;5.18;;;10.10;99.90;;;;;;6275879;22;20457;-83
2023/12/17 04:41:38;;;;;;;10.63;4.93;;;10.20;99.90;;;;;;6301434;22;20069;-84
2023/12/17 04:44:07;;;;;;;9.75;4.68;;;10.20;99.90;;;;;;6276618;22;20406;-84
2023/12/17 04:46:35;;;;;;;11.90;5.63;;;10.10;99.90;;;;;;6301895;22;20081;-84
2023/12/17 04:49:02;;;;;;;10.77;5.07;;;10.10;99.90;;;;;;6250161;22;20023;-82
2023/12/17 04:51:29;;;;;;;9.75;5.38;;;10.00;99.90;;;;;;6250072;22;20073;-83
2023/12/17 04:53:56;;;;;;;13.25;5.10;;;10.10;99.90;;;;;;6250126;22;20016;-83
2023/12/17 04:56:23;;;;;;;11.10;5.57;;;10.00;99.90;;;;;;6250215;22;20019;-83
2023/12/17 04:58:50;;;;;;;9.40;4.78;;;10.00;99.90;;;;;;6250036;22;20353;-83
2023/12/17 05:01:17;;;;;;;11.02;5.05;;;10.00;99.90;;;;;;6275462;22;20337;-83
2023/12/17 05:03:44;;;;;;;10.63;5.45;;;10.00;99.90;;;;;;6275506;22;20043;-83
2023/12/17 05:06:11;;;;;;;10.45;6.20;;;10.00;99.90;;;;;;6250016;22;20026;-83
2023/12/17 05:08:39;;;;;;;16.63;6.78;;;9.90;99.90;;;;;;6275528;22;20019;-82
2023/12/17 05:11:06;;;;;;;11.32;5.40;;;10.00;99.90;;;;;;6249974;22;20066;-83
2023/12/17 05:13:33;;;;;;;10.57;5.85;;;9.90;99.90;;;;;;6249764;22;20385;-82
2023/12/17 05:16:00;;;;;;;11.02;5.07;;;9.90;99.90;;;;;;6275282;22;20023;-83
2023/12/17 05:18:27;;;;;;;11.07;5.28;;;10.00;99.90;;;;;;6301787;22;20020;-82
2023/12/17 05:20:54;;;;;;;10.45;5.72;;;10.00;99.90;;;;;;6225355;22;20019;-84
2023/12/17 05:23:21;;;;;;;10.82;5.97;;;10.00;99.90;;;;;;6225097;22;20024;-84
2023/12/17 05:25:51;;;;;;;11.18;6.72;;;10.00;99.90;;;;;;6224872;22;20130;-82
2023/12/17 05:28:18;;;;;;;11.73;6.38;;;10.00;99.90;;;;;;6250695;22;20524;-83
2023/12/17 05:30:46;;;;;;;10.27;6.22;;;10.00;99.90;;;;;;6224643;22;20049;-83
2023/12/17 05:33:14;;;;;;;9.70;5.53;;;10.00;99.90;;;;;;6224683;22;20103;-81
2023/12/17 05:35:42;;;;;;;13.18;6.03;;;10.00;99.90;;;;;;6224562;22;20020;-83
2023/12/17 05:38:09;;;;;;;11.73;6.93;;;10.00;99.90;;;;;;6249843;22;20342;-82
2023/12/17 05:40:37;;;;;;;11.70;6.28;;;10.00;99.90;;;;;;6224538;22;20089;-82
2023/12/17 05:43:05;;;;;;;16.30;8.13;;;10.00;99.90;;;;;;6199616;22;20031;-82
2023/12/17 05:45:34;;;;;;;18.15;8.35;;;10.00;99.90;;;;;;6224605;22;20024;-83
2023/12/17 05:48:04;;;;;;;18.23;9.60;;;10.00;99.90;;;;;;6225661;22;20011;-82
2023/12/17 05:50:31;;;;;;;19.00;11.25;;;10.00;99.90;;;;;;6224461;22;20417;-83
2023/12/17 05:52:58;;;;;;;23.45;12.02;;;10.00;99.90;;;;;;6249660;22;20495;-82
2023/12/17 05:55:25;;;;;;;25.63;11.55;;;10.00;99.90;;;;;;6224100;22;20035;-83
2023/12/17 05:57:52;;;;;;;20.13;10.98;;;10.00;99.90;;;;;;6224172;22;20050;-81
2023/12/17 06:00:19;;;;;;;23.38;11.65;;;10.00;99.90;;;;;;6224717;22;20026;-82
2023/12/17 06:02:47;;;;;;;21.55;10.95;;;10.00;99.90;;;;;;6224519;22;20453;-82
2023/12/17 06:05:14;;;;;;;23.58;12.48;;;10.00;99.90;;;;;;6224232;22;20027;-82
2023/12/17 06:07:43;;;;;;;19.40;11.10;;;10.00;99.90;;;;;;6225237;22;20019;-82
2023/12/17 06:10:10;;;;;;;23.60;13.10;;;10.00;99.90;;;;;;6249980;22;20026;-82
2023/12/17 06:12:37;;;;;;;22.00;10.75;;;10.00;99.90;;;;;;6249901;22;20396;-83
2023/12/17 06:15:05;;;;;;;23.05;11.88;;;10.00;99.90;;;;;;6249862;22;20012;-83
2023/12/17 06:17:32;;;;;;;27.52;13.23;;;10.00;99.90;;;;;;6224098;22;20026;-83
2023/12/17 06:19:59;;;;;;;22.60;11.35;;;10.00;99.90;;;;;;6232154;22;20023;-82
2023/12/17 06:22:28;;;;;;;22.73;12.38;;;10.00;99.90;;;;;;6249502;22;20094;-83
2023/12/17 06:24:55;;;;;;;23.48;12.50;;;10.10;99.90;;;;;;6250009;22;20023;-83
2023/12/17 06:27:22;;;;;;;26.73;11.82;;;10.00;99.90;;;;;;6249539;22;20031;-82
2023/12/17 06:29:52;;;;;;;23.17;12.10;;;10.00;99.90;;;;;;6302278;22;20047;-83
2023/12/17 06:32:19;;;;;;;21.15;11.40;;;10.00;99.90;;;;;;6226749;22;20357;-82
2023/12/17 06:34:49;;;;;;;21.85;12.57;;;10.00;99.90;;;;;;6277005;22;20043;-82
2023/12/17 06:37:19;;;;;;;27.52;12.18;;;10.00;99.90;;;;;;6251245;22;20026;-82
2023/12/17 06:39:46;;;;;;;26.45;12.77;;;10.00;99.90;;;;;;6302330;22;20122;-82
2023/12/17 06:42:14;;;;;;;27.13;15.27;;;10.00;99.90;;;;;;6226795;22;20034;-82
2023/12/17 06:44:41;;;;;;;23.02;12.23;;;10.00;99.90;;;;;;6252120;22;20513;-82
2023/12/17 06:47:08;;;;;;;20.98;12.30;;;10.00;99.90;;;;;;6251545;22;20019;-82
2023/12/17 06:49:51;;;;;;;23.35;12.50;;;10.00;99.90;;;;;;6254837;22;20015;-82
2023/12/17 06:52:18;;;;;;;22.80;11.93;;;10.00;99.90;;;;;;6276609;22;20099;-83
2023/12/17 06:54:45;;;;;;;19.83;11.00;;;10.00;99.90;;;;;;6276934;22;20102;-82
2023/12/17 06:57:12;;;;;;;19.05;10.70;;;10.00;99.90;;;;;;6251133;22;20015;-83
2023/12/17 06:59:39;;;;;;;25.88;13.23;;;10.00;99.90;;;;;;6302305;22;20118;-83
2023/12/17 07:02:07;;;;;;;20.83;10.75;;;10.00;99.90;;;;;;6251912;22;20473;-82
2023/12/17 07:04:34;;;;;;;20.25;10.77;;;10.00;99.90;;;;;;6251445;22;20368;-83
2023/12/17 07:07:00;;;;;;;19.17;9.95;;;10.00;99.90;;;;;;6277265;22;20023;-82
2023/12/17 07:09:27;;;;;;;21.27;9.80;;;10.00;99.90;;;;;;6251100;22;20027;-83
2023/12/17 07:11:55;;;;;;;21.85;11.73;;;10.00;99.90;;;;;;6276672;22;20377;-83
2023/12/17 07:14:22;;;;;;;17.70;10.68;;;9.90;99.90;;;;;;6250985;22;20019;-83
2023/12/17 07:16:49;;;;;;;17.65;9.98;;;10.00;99.90;;;;;;6251025;22;20073;-83
2023/12/17 07:19:15;;;;;;;20.80;9.75;;;10.00;99.90;;;;;;6250625;22;20028;-83
2023/12/17 07:21:43;;;;;;;19.63;10.60;;;10.00;99.90;;;;;;6277671;22;20042;-82
2023/12/17 07:24:10;;;;;;;17.50;8.93;;;10.00;99.90;;;;;;6250840;22;20023;-81
2023/12/17 07:26:37;;;;;;;16.90;9.07;;;9.90;99.90;;;;;;6226136;22;20023;-82
2023/12/17 07:29:04;;;;;;;15.32;8.80;;;9.90;99.90;;;;;;6251234;22;20030;-82
2023/12/17 07:31:31;;;;;;;14.77;7.90;;;9.90;99.90;;;;;;6251312;22;20438;-82
2023/12/17 07:33:58;;;;;;;19.20;10.30;;;10.00;99.90;;;;;;6226082;22;20015;-82
2023/12/17 07:36:25;;;;;;;20.23;10.38;;;9.90;99.90;;;;;;6227130;22;20121;-83
2023/12/17 07:38:55;;;;;;;19.27;10.48;;;9.90;99.90;;;;;;6226258;22;20023;-83
2023/12/17 07:41:22;;;;;;;20.05;10.50;;;9.90;99.90;;;;;;6225661;22;20446;-83
2023/12/17 07:43:49;;;;;;;21.38;10.27;;;9.90;99.90;;;;;;6251238;22;20011;-83
2023/12/17 07:46:16;;;;;;;19.90;9.88;;;9.90;99.90;;;;;;6228129;22;20019;-83
2023/12/17 07:48:43;;;;;;;22.83;11.18;;;9.90;99.90;;;;;;6226130;22;20071;-83
2023/12/17 07:51:11;;;;;;;17.45;10.25;;;9.90;99.90;;;;;;6226166;22;20065;-83
2023/12/17 07:53:38;;;;;;;19.90;10.02;;;9.90;99.90;;;;;;6200918;22;20016;-83
2023/12/17 07:56:08;;;;;;;21.25;10.77;;;9.90;99.90;;;;;;6251033;22;20120;-82
2023/12/17 07:58:35;;;;;;;25.38;12.10;;;9.90;99.90;;;;;;6225727;22;20019;-82
2023/12/17 08:01:02;;;;;;;23.42;10.93;;;9.90;99.90;;;;;;6200727;22;20015;-83
2023/12/17 08:03:29;;;;;;;24.95;11.70;;;9.90;99.90;;;;;;6276013;22;20097;-83
2023/12/17 08:05:57;;;;;;;26.83;13.18;;;9.90;99.90;;;;;;6250971;22;20016;-83
2023/12/17 08:08:27;;;;;;;29.95;14.50;;;9.90;99.90;;;;;;6250670;22;20460;-83
2023/12/17 08:10:54;;;;;;;23.85;12.32;;;9.90;99.90;;;;;;6226207;22;20102;-84
2023/12/17 08:13:23;;;;;;;30.70;15.25;;;9.90;99.90;;;;;;6250119;22;20107;-84
2023/12/17 08:15:50;;;;;;;31.02;15.55;;;9.90;99.90;;;;;;6225776;22;20090;-84
2023/12/17 08:18:17;;;;;;;40.60;17.58;;;9.90;99.90;;;;;;6201378;22;20024;-83
2023/12/17 08:20:45;;;;;;;30.30;15.00;;;9.90;99.90;;;;;;6200642;22;20019;-85
2023/12/17 08:23:12;;;;;;;33.13;15.90;;;9.80;99.90;;;;;;6251000;22;20377;-83
2023/12/17 08:25:39;;;;;;;30.17;14.93;;;9.80;99.90;;;;;;6225357;22;20030;-83
2023/12/17 08:28:06;;;;;;;30.55;15.35;;;9.80;99.90;;;;;;6226062;22;20019;-83
2023/12/17 08:30:33;;;;;;;33.72;15.52;;;9.80;99.90;;;;;;6250762;22;20020;-82
2023/12/17 08:33:01;;;;;;;29.13;14.85;;;9.80;99.90;;;;;;6224715;22;20046;-83
2023/12/17 08:35:31;;;;;;;28.65;14.38;;;9.80;99.90;;;;;;6225260;22;20039;-83
2023/12/17 08:38:03;;;;;;;29.60;16.48;;;9.80;99.90;;;;;;6225910;22;20020;-82
2023/12/17 08:40:32;;;;;;;32.75;14.35;;;9.80;99.90;;;;;;6227098;22;20043;-83
2023/12/17 08:43:06;;;;;;;30.80;16.15;;;9.80;99.90;;;;;;6277786;22;20024;-81
2023/12/17 08:45:33;;;;;;;33.83;16.20;;;9.70;99.90;;;;;;6226342;22;20023;-82
2023/12/17 08:48:01;;;;;;;33.05;16.58;;;9.70;99.90;;;;;;6225377;22;20027;-83
2023/12/17 08:50:29;;;;;;;31.65;16.60;;;9.70;99.90;;;;;;6250915;22;20016;-82
2023/12/17 08:52:56;;;;;;;36.55;17.83;;;9.70;99.90;;;;;;6224454;22;20020;-83
2023/12/17 08:55:24;;;;;;;29.50;15.02;;;9.70;99.90;;;;;;6225039;22;20012;-83
2023/12/17 08:57:52;;;;;;;27.10;13.27;;;9.70;99.90;;;;;;6250422;22;20022;-83
2023/12/17 09:00:20;;;;;;;26.58;12.05;;;9.70;99.90;;;;;;6225666;22;20065;-82
2023/12/17 09:02:48;;;;;;;24.52;12.82;;;9.70;99.90;;;;;;6225096;22;20413;-83
2023/12/17 09:05:15;;;;;;;30.88;13.75;;;9.70;99.90;;;;;;6224957;22;20024;-83
2023/12/17 09:07:45;;;;;;;25.75;12.77;;;9.70;99.90;;;;;;6225180;22;20023;-84
2023/12/17 09:10:12;;;;;;;26.25;12.32;;;9.70;99.90;;;;;;6226001;22;20023;-83
2023/12/17 09:12:42;;;;;;;25.23;12.65;;;9.70;99.90;;;;;;6224729;22;20027;-84
2023/12/17 09:15:10;;;;;;;22.50;11.55;;;9.70;99.90;;;;;;6225399;22;20020;-83
2023/12/17 09:17:37;;;;;;;26.60;12.60;;;9.70;99.90;;;;;;6225247;22;20061;-83
2023/12/17 09:20:05;;;;;;;23.33;11.60;;;9.70;99.90;;;;;;6259612;22;20027;-84
2023/12/17 09:22:33;;;;;;;26.75;11.85;;;9.70;99.90;;;;;;6250163;22;20016;-84
2023/12/17 09:25:03;;;;;;;26.90;13.10;;;9.70;99.90;;;;;;6250288;22;20020;-83
2023/12/17 09:27:30;;;;;;;23.67;12.15;;;9.70;99.90;;;;;;6276008;22;20433;-83
2023/12/17 09:29:57;;;;;;;24.95;12.30;;;9.70;99.90;;;;;;6250099;22;20015;-83
2023/12/17 09:32:24;;;;;;;25.13;11.52;;;9.70;99.90;;;;;;6275914;22;20043;-83
2023/12/17 09:34:54;;;;;;;22.80;11.73;;;9.70;99.90;;;;;;6250173;22;20091;-80
2023/12/17 09:37:21;;;;;;;19.67;11.30;;;9.70;99.90;;;;;;6275339;22;20050;-81
2023/12/17 09:39:48;;;;;;;21.42;11.38;;;9.70;99.90;;;;;;6275185;22;20019;-83
2023/12/17 09:42:21;;;;;;;21.98;11.25;;;9.70;99.90;;;;;;6250266;22;20020;-83
2023/12/17 09:44:48;;;;;;;19.75;10.40;;;9.70;99.90;;;;;;6249812;22;20027;-83
2023/12/17 09:47:15;;;;;;;18.83;10.07;;;9.70;99.90;;;;;;6250382;22;20435;-83
2023/12/17 09:49:49;;;;;;;20.13;9.93;;;9.60;99.90;;;;;;6301117;22;20094;-83
2023/12/17 09:52:18;;;;;;;20.90;10.30;;;9.70;99.90;;;;;;6275310;22;20074;-79
2023/12/17 09:54:49;;;;;;;20.08;9.90;;;9.70;99.90;;;;;;6249616;22;20450;-84
2023/12/17 09:57:17;;;;;;;17.63;9.40;;;9.60;99.90;;;;;;6275235;22;20103;-83
2023/12/17 09:59:45;;;;;;;17.30;9.13;;;9.60;99.90;;;;;;6249714;22;20019;-85
2023/12/17 10:02:14;;;;;;;15.07;8.48;;;9.70;99.90;;;;;;6275257;22;20324;-82
2023/12/17 10:04:44;;;;;;;15.93;8.38;;;9.60;99.90;;;;;;6278175;22;20077;-80
2023/12/17 10:07:12;;;;;;;14.25;7.28;;;9.60;99.90;;;;;;6278588;22;20019;-83
2023/12/17 10:09:39;;;;;;;15.45;8.82;;;9.70;99.90;;;;;;6278460;22;20020;-83
2023/12/17 10:12:06;;;;;;;15.90;8.40;;;9.70;99.90;;;;;;6252689;22;20023;-83
2023/12/17 10:14:34;;;;;;;18.23;9.50;;;9.70;99.90;;;;;;6252814;22;20085;-84
2023/12/17 10:17:02;;;;;;;19.00;9.98;;;9.70;99.90;;;;;;6252878;22;20042;-83
2023/12/17 10:19:29;;;;;;;14.65;7.90;;;9.70;99.90;;;;;;6279494;22;20023;-83
2023/12/17 10:21:56;;;;;;;16.38;8.18;;;9.70;99.90;;;;;;6228201;22;20073;-83
2023/12/17 10:24:40;;;;;;;16.75;8.90;;;9.70;99.90;;;;;;6228155;22;20450;-83
2023/12/17 10:27:16;;;;;;;20.83;10.48;;;9.70;99.90;;;;;;6228985;22;20023;-79
2023/12/17 10:29:50;;;;;;;18.15;9.32;;;9.70;99.90;;;;;;6252274;22;20023;-84
2023/12/17 10:32:22;;;;;;;15.88;8.18;;;9.70;99.90;;;;;;6253347;22;20349;-84
2023/12/17 10:34:51;;;;;;;15.23;8.10;;;9.70;99.90;;;;;;6252787;22;20018;-81
2023/12/17 10:37:19;;;;;;;15.65;8.55;;;9.70;99.90;;;;;;6252644;22;20102;-84
2023/12/17 10:39:51;;;;;;;16.25;8.73;;;9.70;99.90;;;;;;6227907;22;20115;-81
2023/12/17 10:42:19;;;;;;;15.43;8.85;;;9.70;99.90;;;;;;6252587;22;20066;-80
2023/12/17 10:44:50;;;;;;;16.52;9.30;;;9.60;99.90;;;;;;6279753;22;20322;-84
2023/12/17 10:47:23;;;;;;;13.93;7.95;;;9.60;99.90;;;;;;6252902;22;20031;-84
2023/12/17 10:49:53;;;;;;;17.92;9.18;;;9.60;99.90;;;;;;6252800;22;20031;-80
2023/12/17 10:52:23;;;;;;;17.00;8.43;;;9.50;99.90;;;;;;6252580;22;20078;-80
2023/12/17 10:54:50;;;;;;;16.67;8.30;;;9.50;99.90;;;;;;6227495;22;20019;-80
2023/12/17 10:57:22;;;;;;;15.77;8.90;;;9.40;99.90;;;;;;6252410;22;20067;-80
2023/12/17 10:59:51;;;;;;;13.38;7.60;;;9.40;99.90;;;;;;6279699;22;20018;-80
2023/12/17 11:02:21;;;;;;;13.38;7.97;;;9.40;99.90;;;;;;6253102;22;20016;-84
2023/12/17 11:04:49;;;;;;;12.02;7.07;;;9.40;99.90;;;;;;6252923;22;20356;-80
2023/12/17 11:07:20;;;;;;;14.40;7.82;;;9.40;99.90;;;;;;6227248;22;20031;-85
2023/12/17 11:10:10;;;;;;;11.75;7.55;;;9.30;99.90;;;;;;6256147;22;20468;-84
2023/12/17 11:12:39;;;;;;;13.82;8.02;;;9.30;99.90;;;;;;6253640;22;20445;-84
2023/12/17 11:15:22;;;;;;;13.45;7.80;;;9.30;99.90;;;;;;6231645;22;20016;-84
2023/12/17 11:17:53;;;;;;;14.13;7.93;;;9.30;99.90;;;;;;6226573;22;20481;-83
2023/12/17 11:20:31;;;;;;;14.93;8.05;;;9.30;99.90;;;;;;6236189;22;20016;-80
2023/12/17 11:23:00;;;;;;;15.45;8.70;;;9.30;99.90;;;;;;6276415;22;20438;-80
2023/12/17 11:25:31;;;;;;;14.13;8.20;;;9.30;99.90;;;;;;6275995;22;20450;-80
2023/12/17 11:27:58;;;;;;;16.27;9.07;;;9.30;99.90;;;;;;6275799;22;20349;-81
2023/12/17 11:30:30;;;;;;;16.23;8.20;;;9.20;99.90;;;;;;6276387;22;20249;-81
2023/12/17 11:32:59;;;;;;;14.40;7.97;;;9.30;99.90;;;;;;6250998;22;20030;-80
2023/12/17 11:35:28;;;;;;;14.82;8.27;;;9.30;99.90;;;;;;6276041;22;20043;-80
2023/12/17 11:37:57;;;;;;;14.27;7.82;;;9.30;99.90;;;;;;6251215;22;20074;-79
2023/12/17 11:40:24;;;;;;;17.58;9.68;;;9.40;99.90;;;;;;6276115;22;20023;-78
2023/12/17 11:42:59;;;;;;;16.15;8.93;;;9.40;99.90;;;;;;6275861;22;20026;-80
2023/12/17 11:45:45;;;;;;;18.45;10.13;;;9.50;99.90;;;;;;6276194;22;20020;-79
2023/12/17 11:48:14;;;;;;;17.40;10.10;;;9.60;99.90;;;;;;6301595;22;20051;-79
2023/12/17 11:50:59;;;;;;;19.38;10.70;;;9.60;99.90;;;;;;6275941;22;20126;-79
2023/12/17 11:53:27;;;;;;;23.48;12.70;;;9.60;99.90;;;;;;6278811;22;20031;-78
2023/12/17 11:55:56;;;;;;;23.23;12.85;;;9.60;99.90;;;;;;6301471;22;20042;-80
2023/12/17 11:58:23;;;;;;;19.08;10.80;;;9.60;99.90;;;;;;6250724;22;20019;-78
2023/12/17 12:01:11;;;;;;;18.35;10.98;;;9.60;99.90;;;;;;6276323;22;20051;-80
2023/12/17 12:03:41;;;;;;;19.50;10.18;;;9.60;99.90;;;;;;6301583;22;20020;-79
2023/12/17 12:06:10;;;;;;;20.40;11.25;;;9.60;99.90;;;;;;6250734;22;20030;-80
2023/12/17 12:08:45;;;;;;;18.95;10.18;;;9.60;99.90;;;;;;6301652;22;20107;-81
2023/12/17 12:11:14;;;;;;;22.20;12.23;;;9.60;99.90;;;;;;6276550;22;20011;-82
2023/12/17 12:13:43;;;;;;;26.42;14.02;;;9.60;99.90;;;;;;6251045;22;20073;-81
2023/12/17 12:16:12;;;;;;;23.42;11.05;;;9.60;99.90;;;;;;6278408;22;20020;-80
2023/12/17 12:18:39;;;;;;;22.80;12.10;;;9.60;99.90;;;;;;6250651;22;20361;-78
2023/12/17 12:21:18;;;;;;;22.63;11.70;;;9.60;99.90;;;;;;6250421;22;20023;-79
2023/12/17 12:23:53;;;;;;;23.35;12.45;;;9.60;99.90;;;;;;6275496;22;20376;-79
2023/12/17 12:26:21;;;;;;;23.48;12.38;;;9.60;99.90;;;;;;6276435;22;20515;-78
2023/12/17 12:28:59;;;;;;;20.65;11.98;;;9.60;99.90;;;;;;6275597;22;20024;-78
2023/12/17 12:31:27;;;;;;;24.40;14.50;;;9.50;99.90;;;;;;6301307;22;20050;-79
2023/12/17 12:33:59;;;;;;;31.77;14.10;;;9.50;99.90;;;;;;6275498;22;20012;-79
2023/12/17 12:36:45;;;;;;;25.73;12.98;;;9.40;99.90;;;;;;6250376;22;20020;-78
2023/12/17 12:39:19;;;;;;;22.48;12.95;;;9.40;99.90;;;;;;6275539;22;20031;-82
2023/12/17 12:41:48;;;;;;;23.98;13.13;;;9.30;99.90;;;;;;6276996;22;20016;-80
2023/12/17 12:44:16;;;;;;;22.98;12.80;;;9.30;99.90;;;;;;6275825;22;20031;-79
2023/12/17 12:46:47;;;;;;;22.08;12.57;;;9.40;99.90;;;;;;6250479;22;20023;-81